createdAt,value
2018-03-06T00:02:26.568Z,22.73
2018-03-06T00:06:27.953Z,27.90
2018-03-06T00:10:30.142Z,25.03
2018-03-06T00:14:32.308Z,24.10
2018-03-06T00:18:33.666Z,20.73
2018-03-06T00:22:35.692Z,20.47
2018-03-06T00:26:37.434Z,22.87
2018-03-06T00:30:39.491Z,26.13
2018-03-06T00:34:41.105Z,23.30
2018-03-06T00:38:42.793Z,21.03
2018-03-06T00:42:44.936Z,20.77
2018-03-06T00:46:48.039Z,23.10
2018-03-06T00:50:50.314Z,19.87
2018-03-06T00:54:51.987Z,19.67
2018-03-06T00:58:53.677Z,23.03
2018-03-06T01:02:56.713Z,19.00
2018-03-06T01:06:59.145Z,17.73
2018-03-06T01:11:00.432Z,17.23
2018-03-06T01:15:01.858Z,21.33
2018-03-06T01:19:03.528Z,17.57
2018-03-06T01:23:05.591Z,16.73
2018-03-06T01:27:07.726Z,17.27
2018-03-06T01:31:09.455Z,13.80
2018-03-06T01:35:11.183Z,15.77
2018-03-06T01:39:12.880Z,18.33
2018-03-06T01:43:14.903Z,18.03
2018-03-06T01:47:16.710Z,21.17
2018-03-06T01:51:18.777Z,20.57
2018-03-06T01:55:20.498Z,13.87
2018-03-06T01:59:21.801Z,16.47
2018-03-06T02:03:27.434Z,10.87
2018-03-06T02:07:28.754Z,16.63
2018-03-06T02:11:30.462Z,16.33
2018-03-06T02:15:32.147Z,13.90
2018-03-06T02:19:34.221Z,16.67
2018-03-06T02:23:35.523Z,13.87
2018-03-06T02:27:37.242Z,16.93
2018-03-06T02:31:40.016Z,17.87
2018-03-06T02:35:41.734Z,17.83
2018-03-06T02:39:43.148Z,19.03
2018-03-06T02:43:44.460Z,20.70
2018-03-06T02:47:45.772Z,19.80
2018-03-06T02:51:47.095Z,19.70
2018-03-06T02:55:54.590Z,14.20
2018-03-06T02:59:56.686Z,27.00
2018-03-06T03:03:58.386Z,18.33
2018-03-06T03:08:02.275Z,20.13
2018-03-06T03:12:03.590Z,18.27
2018-03-06T03:16:05.635Z,20.37
2018-03-06T03:20:07.295Z,24.07
2018-03-06T03:24:09.471Z,24.13
2018-03-06T03:28:11.149Z,32.10
2018-03-06T03:32:12.508Z,25.30
2018-03-06T03:36:13.889Z,20.03
2018-03-06T03:40:16.102Z,24.97
2018-03-06T03:44:18.496Z,19.13
2018-03-06T03:48:19.832Z,23.30
2018-03-06T03:52:22.560Z,22.73
2018-03-06T03:56:24.951Z,21.80
2018-03-06T04:00:27.024Z,24.37
2018-03-06T04:04:29.192Z,24.23
2018-03-06T04:08:30.495Z,19.27
2018-03-06T04:12:32.560Z,20.10
2018-03-06T04:16:34.301Z,23.27
2018-03-06T04:20:36.168Z,22.20
2018-03-06T04:24:38.397Z,26.87
2018-03-06T04:28:39.867Z,20.37
2018-03-06T04:32:41.973Z,21.47
2018-03-06T04:36:43.896Z,26.43
2018-03-06T04:40:45.676Z,23.93
2018-03-06T04:44:48.562Z,21.13
2018-03-06T04:48:50.374Z,23.47
2018-03-06T04:52:51.825Z,22.87
2018-03-06T04:56:53.202Z,23.97
2018-03-06T05:00:55.060Z,27.00
2018-03-06T05:04:56.804Z,21.57
2018-03-06T05:08:59.285Z,26.13
2018-03-06T05:13:01.448Z,24.80
2018-03-06T05:17:03.644Z,24.10
2018-03-06T05:21:05.787Z,28.00
2018-03-06T05:25:07.559Z,28.00
2018-03-06T05:29:11.012Z,28.90
2018-03-06T05:33:14.570Z,22.77
2018-03-06T05:37:16.693Z,25.33
2018-03-06T05:41:19.265Z,22.83
2018-03-06T05:45:20.688Z,28.17
2018-03-06T05:49:22.890Z,30.03
2018-03-06T05:53:24.375Z,22.20
2018-03-06T05:57:26.669Z,30.00
2018-03-06T06:01:28.897Z,25.63
2018-03-06T06:05:30.799Z,33.50
2018-03-06T06:09:32.311Z,31.53
2018-03-06T06:13:33.870Z,25.93
2018-03-06T06:17:35.726Z,25.43
2018-03-06T06:21:37.210Z,29.27
2018-03-06T06:25:38.507Z,24.27
2018-03-06T06:29:40.854Z,27.10
2018-03-06T06:33:42.986Z,24.33
2018-03-06T06:37:45.306Z,22.93
2018-03-06T06:41:47.121Z,26.00
2018-03-06T06:45:48.679Z,28.77
2018-03-06T06:49:50.402Z,40.97
2018-03-06T06:53:52.586Z,56.10
2018-03-06T06:57:54.662Z,26.57
2018-03-06T07:01:58.038Z,23.97
2018-03-06T07:06:00.278Z,25.93
2018-03-06T07:10:04.166Z,29.60
2018-03-06T07:14:13.716Z,36.57
2018-03-06T07:18:16.376Z,45.80
2018-03-06T07:22:18.481Z,48.73
2018-03-06T07:26:20.771Z,43.80
2018-03-06T07:30:22.490Z,42.87
2018-03-06T07:34:24.681Z,142.33
2018-03-06T07:38:28.208Z,122.93
2018-03-06T07:42:32.344Z,86.40
2018-03-06T07:46:34.411Z,60.70
2018-03-06T07:50:35.840Z,31.50
2018-03-06T07:54:38.081Z,35.57
2018-03-06T07:58:40.293Z,37.70
2018-03-06T08:02:42.437Z,39.53
2018-03-06T08:06:44.643Z,39.57
2018-03-06T08:10:47.014Z,31.57
2018-03-06T08:14:48.515Z,30.73
2018-03-06T08:18:54.248Z,31.07
2018-03-06T08:22:56.590Z,38.97
2018-03-06T08:26:58.024Z,36.73
2018-03-06T08:31:00.263Z,41.37
2018-03-06T08:35:03.720Z,41.53
2018-03-06T08:39:05.671Z,37.23
2018-03-06T08:43:07.452Z,43.37
2018-03-06T08:47:10.304Z,41.40
2018-03-06T08:51:12.461Z,35.53
2018-03-06T08:55:14.737Z,34.90
2018-03-06T08:59:16.222Z,33.13
2018-03-06T09:03:18.592Z,32.27
2018-03-06T09:07:20.846Z,39.60
2018-03-06T09:11:24.275Z,36.60
2018-03-06T09:15:26.381Z,35.67
2018-03-06T09:19:28.605Z,38.23
2018-03-06T09:23:31.263Z,34.13
2018-03-06T09:27:33.543Z,37.33
2018-03-06T09:31:35.602Z,32.07
2018-03-06T09:35:39.823Z,35.47
2018-03-06T09:39:44.310Z,36.43
2018-03-06T09:43:49.276Z,34.83
2018-03-06T09:47:54.642Z,32.20
2018-03-06T09:52:01.107Z,37.30
2018-03-06T09:56:04.182Z,37.70
2018-03-06T10:00:06.253Z,34.53
2018-03-06T10:04:12.544Z,38.63
2018-03-06T10:08:15.396Z,35.77
2018-03-06T10:12:16.672Z,37.83
2018-03-06T10:16:18.067Z,38.00
2018-03-06T10:20:20.106Z,39.10
2018-03-06T10:24:22.263Z,36.17
2018-03-06T10:28:23.943Z,38.77
2018-03-06T10:32:25.283Z,40.17
2018-03-06T10:36:26.962Z,34.63
2018-03-06T10:40:30.302Z,36.53
2018-03-06T10:44:31.981Z,39.87
2018-03-06T10:48:35.345Z,39.97
2018-03-06T10:52:36.645Z,42.90
2018-03-06T10:56:39.510Z,40.50
2018-03-06T11:00:46.520Z,39.97
2018-03-06T11:04:49.345Z,42.37
2018-03-06T11:08:51.136Z,42.17
2018-03-06T11:12:53.156Z,38.23
2018-03-06T11:16:55.020Z,40.33
2018-03-06T11:20:58.168Z,42.83
2018-03-06T11:24:59.954Z,42.80
2018-03-06T11:29:03.294Z,41.40
2018-03-06T11:33:05.500Z,38.60
2018-03-06T11:37:06.962Z,43.20
2018-03-06T11:41:09.202Z,36.10
2018-03-06T11:45:11.150Z,38.13
2018-03-06T11:49:12.906Z,36.93
2018-03-06T11:53:15.117Z,45.50
2018-03-06T11:57:18.189Z,40.37
2018-03-06T12:01:20.089Z,37.23
2018-03-06T12:05:22.144Z,36.43
2018-03-06T12:09:23.846Z,33.67
2018-03-06T12:13:25.481Z,37.37
2018-03-06T12:17:27.246Z,33.67
2018-03-06T12:21:29.650Z,38.93
2018-03-06T12:25:31.521Z,38.53
2018-03-06T12:29:34.644Z,33.50
2018-03-06T12:33:36.516Z,40.70
2018-03-06T12:37:37.909Z,35.67
2018-03-06T12:41:40.262Z,37.77
2018-03-06T12:45:43.041Z,33.47
2018-03-06T12:49:46.818Z,35.90
2018-03-06T12:53:48.909Z,33.83
2018-03-06T12:57:51.085Z,39.73
2018-03-06T13:01:54.781Z,34.30
2018-03-06T13:05:57.258Z,34.03
2018-03-06T13:09:59.256Z,35.93
2018-03-06T13:14:00.753Z,35.30
2018-03-06T13:18:02.907Z,36.93
2018-03-06T13:22:04.258Z,35.83
2018-03-06T13:26:05.948Z,40.57
2018-03-06T13:30:08.132Z,36.67
2018-03-06T13:34:10.196Z,36.37
2018-03-06T13:38:12.751Z,38.73
2018-03-06T13:42:14.501Z,32.97
2018-03-06T13:46:16.508Z,40.90
2018-03-06T13:50:18.205Z,37.37
2018-03-06T13:54:19.891Z,34.87
2018-03-06T13:58:22.043Z,32.97
2018-03-06T14:02:24.118Z,36.60
2018-03-06T14:06:26.265Z,36.60
2018-03-06T14:10:27.737Z,33.87
2018-03-06T14:14:29.094Z,30.53
2018-03-06T14:18:33.204Z,32.30
2018-03-06T14:22:34.879Z,37.70
2018-03-06T14:26:37.119Z,36.67
2018-03-06T14:30:40.832Z,35.73
2018-03-06T14:34:42.175Z,36.13
2018-03-06T14:38:44.345Z,36.77
2018-03-06T14:42:46.909Z,36.63
2018-03-06T14:46:49.745Z,31.50
2018-03-06T14:50:52.526Z,38.03
2018-03-06T14:54:54.278Z,31.30
2018-03-06T14:58:56.535Z,28.87
2018-03-06T15:02:58.750Z,36.73
2018-03-06T15:07:01.183Z,36.40
2018-03-06T15:11:04.963Z,32.83
2018-03-06T15:15:06.454Z,36.87
2018-03-06T15:19:09.393Z,32.50
2018-03-06T15:23:11.354Z,30.03
2018-03-06T15:27:14.270Z,33.53
2018-03-06T15:31:18.349Z,29.40
2018-03-06T15:35:19.697Z,28.37
2018-03-06T15:39:28.450Z,25.70
2018-03-06T15:43:30.638Z,32.60
2018-03-06T15:47:32.438Z,26.77
2018-03-06T15:51:34.569Z,29.10
2018-03-06T15:55:36.722Z,29.40
2018-03-06T15:59:38.024Z,35.23
2018-03-06T16:03:39.788Z,28.60
2018-03-06T16:07:41.441Z,29.93
2018-03-06T16:11:43.194Z,35.20
2018-03-06T16:15:44.877Z,31.17
2018-03-06T16:19:46.577Z,36.07
2018-03-06T16:23:47.906Z,29.20
2018-03-06T16:27:51.138Z,35.73
2018-03-06T16:31:52.490Z,32.03
2018-03-06T16:35:56.073Z,38.83
2018-03-06T16:39:58.144Z,43.63
2018-03-06T16:43:59.974Z,47.87
2018-03-06T16:48:01.276Z,71.13
2018-03-06T16:52:02.688Z,52.10
2018-03-06T16:56:04.737Z,45.80
2018-03-06T17:00:10.061Z,43.50
2018-03-06T17:04:11.378Z,47.27
2018-03-06T17:08:13.115Z,39.47
2018-03-06T17:12:14.434Z,41.20
2018-03-06T17:16:16.604Z,42.13
2018-03-06T17:20:18.291Z,36.10
2018-03-06T17:24:20.409Z,43.33
2018-03-06T17:28:21.730Z,42.23
2018-03-06T17:32:23.810Z,39.20
2018-03-06T17:36:25.886Z,38.87
2018-03-06T17:40:27.390Z,41.47
2018-03-06T17:44:30.208Z,33.73
2018-03-06T17:48:32.567Z,39.90
2018-03-06T17:52:34.320Z,42.73
2018-03-06T17:56:35.720Z,35.87
2018-03-06T18:00:40.157Z,40.07
2018-03-06T18:04:42.056Z,39.67
2018-03-06T18:08:45.483Z,41.73
2018-03-06T18:12:52.861Z,42.07
2018-03-06T18:16:54.995Z,50.13
2018-03-06T18:20:56.744Z,42.13
2018-03-06T18:24:58.899Z,47.93
2018-03-06T18:29:02.667Z,55.73
2018-03-06T18:33:04.111Z,54.43
2018-03-06T18:37:06.340Z,48.50
2018-03-06T18:41:09.507Z,47.07
2018-03-06T18:45:12.160Z,42.60
2018-03-06T18:49:15.375Z,44.90
2018-03-06T18:53:17.501Z,51.03
2018-03-06T18:57:19.172Z,43.20
2018-03-06T19:01:57.088Z,62.30
2018-03-06T19:10:40.257Z,50.87
2018-03-06T19:14:43.772Z,53.57
2018-03-06T19:18:46.955Z,48.53
2018-03-06T19:22:50.858Z,48.73
2018-03-06T19:26:54.921Z,59.47
2018-03-06T19:31:00.742Z,56.23
2018-03-06T19:35:04.281Z,50.63
2018-03-06T19:39:07.795Z,42.30
2018-03-06T19:43:11.469Z,55.60
2018-03-06T19:47:15.139Z,55.67
2018-03-06T19:51:18.749Z,64.97
2018-03-06T19:55:21.852Z,66.70
2018-03-06T19:59:25.393Z,69.83
2018-03-06T20:03:30.319Z,70.13
2018-03-06T20:07:36.176Z,66.83
2018-03-06T20:11:39.680Z,53.00
2018-03-06T20:15:43.266Z,54.07
2018-03-06T20:19:46.368Z,56.00
2018-03-06T20:23:49.639Z,57.33
2018-03-06T20:27:53.519Z,46.17
2018-03-06T20:32:02.432Z,43.67
2018-03-06T20:36:06.307Z,53.53
2018-03-06T20:40:15.273Z,57.77
2018-03-06T20:44:18.382Z,58.77
2018-03-06T20:48:22.321Z,59.90
2018-03-06T20:52:26.215Z,66.37
2018-03-06T20:56:29.393Z,46.43
2018-03-06T21:00:32.580Z,61.63
2018-03-06T21:04:36.539Z,74.97
2018-03-06T21:08:39.741Z,76.53
2018-03-06T21:12:44.322Z,71.00
2018-03-06T21:16:47.928Z,58.20
2018-03-06T21:20:51.543Z,46.03
2018-03-06T21:24:55.172Z,57.00
2018-03-06T21:28:59.128Z,56.00
2018-03-06T21:33:03.096Z,58.27
2018-03-06T21:37:07.048Z,53.40
2018-03-06T21:41:10.582Z,34.53
2018-03-06T21:45:14.156Z,27.07
2018-03-06T21:49:18.076Z,28.97
2018-03-06T21:53:22.754Z,24.90
2018-03-06T21:57:26.681Z,35.43
2018-03-06T22:01:30.698Z,34.90
2018-03-06T22:05:34.632Z,36.93
2018-03-06T22:09:37.804Z,26.90
2018-03-06T22:13:40.931Z,41.97
2018-03-06T22:17:44.592Z,37.17
2018-03-06T22:21:48.475Z,37.83
2018-03-06T22:25:52.101Z,32.90
2018-03-06T22:29:55.249Z,34.53
2018-03-06T22:33:58.709Z,31.50
2018-03-06T22:38:01.826Z,29.43
2018-03-06T22:42:07.331Z,29.70
2018-03-06T22:46:10.859Z,27.10
2018-03-06T22:50:14.010Z,27.60
2018-03-06T22:54:17.124Z,27.20
2018-03-06T22:58:20.353Z,30.03
2018-03-06T23:02:24.232Z,32.20
2018-03-06T23:06:27.877Z,24.73
2018-03-06T23:10:30.988Z,26.13
2018-03-06T23:14:35.264Z,24.63
2018-03-06T23:18:38.764Z,26.30
2018-03-06T23:22:43.674Z,24.90
2018-03-06T23:26:47.579Z,26.43
2018-03-06T23:30:50.807Z,28.40
2018-03-06T23:34:56.356Z,26.60
2018-03-06T23:39:00.740Z,26.40
2018-03-06T23:43:03.852Z,28.00
2018-03-06T23:47:07.788Z,26.77
2018-03-06T23:51:10.917Z,30.47
2018-03-06T23:55:14.078Z,28.80
2018-03-06T23:59:17.218Z,33.00
